createdAt,value
2023-04-18T00:01:44.906Z,28.74
2023-04-18T00:06:43.191Z,29.05
2023-04-18T00:11:41.460Z,29.27
2023-04-18T00:16:40.807Z,29.58
2023-04-18T00:21:40.870Z,29.80
2023-04-18T00:26:39.156Z,29.91
2023-04-18T00:31:37.417Z,30.21
2023-04-18T00:36:37.713Z,30.42
2023-04-18T00:41:36.999Z,30.54
2023-04-18T00:46:35.327Z,30.63
2023-04-18T00:51:35.974Z,30.74
2023-04-18T00:56:34.654Z,30.85
2023-04-18T01:01:33.981Z,30.96
2023-04-18T01:06:31.258Z,31.07
2023-04-18T01:11:32.612Z,31.16
2023-04-18T01:16:31.869Z,31.28
2023-04-18T01:21:31.159Z,31.40
2023-04-18T01:26:30.431Z,31.49
2023-04-18T01:31:30.770Z,31.59
2023-04-18T01:36:29.000Z,31.71
2023-04-18T01:41:30.279Z,31.81
2023-04-18T01:46:28.643Z,31.91
2023-04-18T01:51:26.708Z,31.93
2023-04-18T01:56:26.012Z,32.03
2023-04-18T02:01:26.300Z,32.12
2023-04-18T02:06:24.549Z,32.14
2023-04-18T02:11:25.812Z,32.24
2023-04-18T02:16:25.132Z,32.24
2023-04-18T02:21:22.353Z,32.35
2023-04-18T02:26:21.611Z,32.35
2023-04-18T02:31:20.901Z,32.46
2023-04-18T02:36:20.142Z,32.46
2023-04-18T02:41:20.402Z,32.46
2023-04-18T02:46:19.685Z,32.47
2023-04-18T02:51:17.948Z,32.57
2023-04-18T02:56:18.195Z,32.57
2023-04-18T03:01:17.457Z,32.57
2023-04-18T03:06:15.702Z,32.57
2023-04-18T03:11:14.942Z,32.59
2023-04-18T03:16:15.219Z,32.69
2023-04-18T03:21:14.521Z,32.69
2023-04-18T03:26:13.816Z,32.69
2023-04-18T03:31:11.151Z,32.69
2023-04-18T03:36:11.421Z,32.70
2023-04-18T03:41:10.696Z,32.70
2023-04-18T03:46:10.039Z,32.81
2023-04-18T03:51:09.309Z,32.70
2023-04-18T03:56:08.624Z,32.81
2023-04-18T04:01:07.903Z,32.70
2023-04-18T04:06:07.199Z,32.70
2023-04-18T04:11:06.510Z,32.82
2023-04-18T04:16:05.865Z,32.82
2023-04-18T04:21:04.912Z,32.82
2023-04-18T04:26:04.194Z,32.82
2023-04-18T04:31:03.475Z,32.82
2023-04-18T04:36:01.711Z,32.82
2023-04-18T04:41:02.974Z,32.82
2023-04-18T04:46:01.304Z,32.82
2023-04-18T04:51:01.392Z,32.84
2023-04-18T04:55:59.662Z,32.73
2023-04-18T05:01:04.022Z,32.73
2023-04-18T05:05:58.214Z,32.73
2023-04-18T05:10:57.501Z,32.73
2023-04-18T05:15:56.772Z,32.73
2023-04-18T05:20:56.052Z,32.73
2023-04-18T05:25:56.307Z,32.73
2023-04-18T05:30:55.609Z,32.73
2023-04-18T05:35:53.884Z,32.73
2023-04-18T05:40:53.091Z,32.75
2023-04-18T05:45:55.891Z,32.75
2023-04-18T05:50:53.700Z,32.85
2023-04-18T05:55:50.933Z,32.75
2023-04-18T06:00:50.229Z,32.75
2023-04-18T06:05:49.536Z,32.85
2023-04-18T06:10:50.625Z,32.75
2023-04-18T06:15:46.899Z,32.85
2023-04-18T06:20:48.147Z,32.85
2023-04-18T06:25:47.432Z,32.85
2023-04-18T06:30:46.752Z,32.85
2023-04-18T06:35:45.997Z,32.95
2023-04-18T06:40:44.270Z,32.95
2023-04-18T06:45:43.602Z,32.85
2023-04-18T06:50:42.846Z,32.95
2023-04-18T06:55:42.122Z,32.95
2023-04-18T07:00:41.402Z,32.95
2023-04-18T07:05:40.677Z,33.05
2023-04-18T07:10:39.950Z,33.05
2023-04-18T07:15:39.240Z,33.05
2023-04-18T07:20:39.504Z,33.15
2023-04-18T07:25:37.808Z,33.15
2023-04-18T07:30:37.110Z,33.25
2023-04-18T07:35:37.423Z,36.07
2023-04-18T07:40:36.708Z,34.56
2023-04-18T07:45:34.970Z,34.76
2023-04-18T07:50:33.278Z,34.46
2023-04-18T07:55:35.581Z,34.36
2023-04-18T08:00:33.830Z,34.26
2023-04-18T08:05:34.341Z,34.34
2023-04-18T08:10:32.412Z,34.24
2023-04-18T08:15:33.045Z,34.14
2023-04-18T08:20:29.929Z,34.14
2023-04-18T08:25:30.231Z,34.14
2023-04-18T08:30:30.482Z,34.04
2023-04-18T08:35:28.768Z,34.04
2023-04-18T08:40:29.050Z,34.14
2023-04-18T08:45:27.304Z,34.02
2023-04-18T08:50:25.571Z,34.02
2023-04-18T08:55:24.851Z,34.12
2023-04-18T09:00:24.115Z,34.12
2023-04-18T09:05:23.380Z,34.22
2023-04-18T09:10:23.653Z,34.22
2023-04-18T09:15:21.950Z,34.53
2023-04-18T09:20:22.232Z,34.33
2023-04-18T09:25:20.494Z,34.31
2023-04-18T09:30:19.768Z,35.01
2023-04-18T09:35:21.018Z,34.71
2023-04-18T09:40:18.309Z,34.71
2023-04-18T09:45:18.612Z,34.81
2023-04-18T09:50:17.936Z,35.11
2023-04-18T09:55:17.196Z,35.51
2023-04-18T10:00:15.522Z,35.11
2023-04-18T10:05:14.851Z,35.60
2023-04-18T10:10:13.955Z,35.50
2023-04-18T10:15:13.242Z,35.69
2023-04-18T10:20:12.558Z,35.50
2023-04-18T10:25:10.826Z,36.00
2023-04-18T10:30:11.100Z,35.69
2023-04-18T10:35:10.390Z,35.39
2023-04-18T10:40:09.659Z,35.50
2023-04-18T10:45:08.919Z,35.30
2023-04-18T10:50:08.188Z,35.19
2023-04-18T10:55:07.467Z,35.08
2023-04-18T11:00:06.767Z,35.28
2023-04-18T11:05:06.056Z,35.08
2023-04-18T11:10:06.376Z,35.18
2023-04-18T11:15:04.649Z,35.58
2023-04-18T11:20:03.978Z,35.38
2023-04-18T11:25:03.252Z,35.48
2023-04-18T11:30:02.516Z,36.28
2023-04-18T11:35:02.791Z,35.68
2023-04-18T11:40:01.076Z,35.58
2023-04-18T11:45:01.361Z,35.58
2023-04-18T11:49:59.612Z,36.28
2023-04-18T11:54:58.935Z,35.98
2023-04-18T11:59:59.222Z,35.98
2023-04-18T12:04:57.813Z,36.28
2023-04-18T12:09:58.781Z,36.26
2023-04-18T12:14:56.075Z,36.16
2023-04-18T12:19:55.364Z,36.07
2023-04-18T12:24:54.687Z,36.16
2023-04-18T12:29:54.948Z,36.07
2023-04-18T12:34:53.214Z,36.26
2023-04-18T12:39:52.488Z,36.07
2023-04-18T12:44:58.954Z,35.96
2023-04-18T12:49:51.017Z,35.86
2023-04-18T12:54:50.297Z,35.86
2023-04-18T12:59:50.564Z,35.86
2023-04-18T13:04:49.923Z,35.76
2023-04-18T13:09:49.027Z,35.66
2023-04-18T13:14:47.325Z,35.76
2023-04-18T13:19:47.629Z,35.76
2023-04-18T13:24:45.952Z,35.46
2023-04-18T13:29:46.297Z,35.46
2023-04-18T13:34:45.408Z,35.36
2023-04-18T13:39:44.667Z,35.56
2023-04-18T13:44:43.925Z,35.46
2023-04-18T13:49:42.193Z,35.46
2023-04-18T13:54:42.466Z,35.46
2023-04-18T13:59:40.757Z,36.07
2023-04-18T14:04:40.128Z,35.76
2023-04-18T14:09:39.283Z,35.66
2023-04-18T14:14:38.578Z,35.55
2023-04-18T14:19:37.834Z,35.46
2023-04-18T14:24:36.120Z,35.36
2023-04-18T14:29:37.412Z,35.35
2023-04-18T14:34:36.793Z,35.44
2023-04-18T14:39:35.047Z,35.44
2023-04-18T14:44:33.316Z,35.25
2023-04-18T14:49:34.627Z,35.35
2023-04-18T14:54:32.726Z,35.25
2023-04-18T14:59:32.159Z,35.35
2023-04-18T15:04:32.590Z,35.25
2023-04-18T15:09:30.792Z,35.25
2023-04-18T15:14:31.235Z,35.14
2023-04-18T15:19:29.395Z,35.14
2023-04-18T15:24:28.695Z,35.14
2023-04-18T15:29:29.007Z,35.14
2023-04-18T15:34:29.290Z,35.14
2023-04-18T15:39:27.589Z,35.05
2023-04-18T15:44:25.885Z,34.84
2023-04-18T15:49:27.192Z,34.94
2023-04-18T15:54:24.488Z,34.94
2023-04-18T15:59:23.779Z,34.74
2023-04-18T16:04:24.100Z,34.84
2023-04-18T16:09:23.208Z,34.74
2023-04-18T16:14:21.489Z,34.74
2023-04-18T16:19:24.767Z,34.74
2023-04-18T16:24:21.016Z,34.74
2023-04-18T16:29:19.298Z,34.63
2023-04-18T16:34:18.791Z,34.63
2023-04-18T16:39:17.898Z,34.63
2023-04-18T16:44:18.364Z,34.53
2023-04-18T16:49:17.463Z,34.53
2023-04-18T16:54:16.716Z,34.53
2023-04-18T16:59:15.007Z,34.43
2023-04-18T17:04:15.397Z,34.43
2023-04-18T17:09:13.664Z,34.43
2023-04-18T17:14:14.120Z,34.33
2023-04-18T17:19:13.330Z,34.33
2023-04-18T17:24:12.451Z,34.33
2023-04-18T17:29:10.703Z,34.23
2023-04-18T17:34:08.719Z,34.23
2023-04-18T17:39:09.143Z,34.23
2023-04-18T17:44:08.393Z,34.23
2023-04-18T17:49:07.671Z,34.23
2023-04-18T17:54:07.783Z,34.23
2023-04-18T17:59:06.226Z,34.23
2023-04-18T18:04:05.595Z,34.23
2023-04-18T18:09:04.748Z,36.73
2023-04-18T18:14:04.972Z,34.89
2023-04-18T18:19:03.219Z,33.66
2023-04-18T18:24:02.619Z,32.32
2023-04-18T18:29:01.778Z,30.98
2023-04-18T18:34:06.838Z,30.66
2023-04-18T18:39:01.312Z,30.46
2023-04-18T18:43:59.586Z,29.74
2023-04-18T18:48:59.897Z,29.33
2023-04-18T18:53:58.231Z,29.22
2023-04-18T18:58:59.243Z,29.33
2023-04-18T19:03:56.765Z,28.69
2023-04-18T19:08:56.884Z,29.00
2023-04-18T19:13:55.018Z,29.20
2023-04-18T19:18:59.208Z,28.69
2023-04-18T19:23:57.457Z,28.58
2023-04-18T19:28:51.587Z,28.27
2023-04-18T19:33:51.755Z,28.27
2023-04-18T19:38:50.938Z,28.77
2023-04-18T19:43:53.655Z,28.97
2023-04-18T19:48:49.200Z,28.96
2023-04-18T19:53:49.421Z,28.96
2023-04-18T19:58:47.723Z,29.16
2023-04-18T20:03:47.307Z,29.16
2023-04-18T20:08:46.281Z,29.04
2023-04-18T20:13:45.469Z,29.16
2023-04-18T20:18:45.677Z,29.04
2023-04-18T20:23:43.632Z,28.94
2023-04-18T20:28:42.934Z,29.04
2023-04-18T20:33:42.545Z,29.14
2023-04-18T20:38:43.857Z,28.93
2023-04-18T20:43:41.910Z,28.93
2023-04-18T20:48:40.165Z,29.14
2023-04-18T20:53:39.314Z,29.03
2023-04-18T20:58:38.884Z,28.32
2023-04-18T21:03:38.866Z,28.52
2023-04-18T21:08:37.996Z,28.62
2023-04-18T21:13:37.220Z,28.72
2023-04-18T21:18:35.481Z,28.72
2023-04-18T21:23:38.800Z,28.83
2023-04-18T21:28:34.075Z,29.03
2023-04-18T21:33:33.336Z,29.03
2023-04-18T21:38:32.746Z,28.92
2023-04-18T21:43:31.803Z,28.81
2023-04-18T21:48:31.106Z,28.81
2023-04-18T21:53:31.341Z,29.03
2023-04-18T21:58:28.824Z,28.93
2023-04-18T22:03:29.159Z,28.31
2023-04-18T22:08:28.204Z,28.31
2023-04-18T22:13:28.460Z,28.32
2023-04-18T22:18:28.719Z,28.22
2023-04-18T22:23:26.018Z,28.01
2023-04-18T22:28:26.282Z,27.60
2023-04-18T22:33:24.591Z,27.72
2023-04-18T22:38:23.846Z,27.83
2023-04-18T22:43:23.122Z,27.83
2023-04-18T22:48:23.404Z,27.42
2023-04-18T22:53:21.694Z,27.11
2023-04-18T22:58:21.002Z,27.21
2023-04-18T23:03:20.396Z,27.01
2023-04-18T23:08:18.582Z,26.70
2023-04-18T23:13:19.882Z,26.19
2023-04-18T23:18:20.171Z,26.19
2023-04-18T23:23:20.547Z,26.40
2023-04-18T23:28:16.650Z,26.40
2023-04-18T23:33:17.953Z,26.19
2023-04-18T23:38:15.226Z,25.99
2023-04-18T23:43:14.486Z,26.09
2023-04-18T23:48:14.791Z,26.09
2023-04-18T23:53:14.064Z,25.78
2023-04-18T23:58:14.346Z,25.49
